createdAt,value
2022-10-05T00:02:33.726Z,100.00
2022-10-05T00:05:28.120Z,100.00
2022-10-05T00:08:20.932Z,100.00
2022-10-05T00:11:10.302Z,100.00
2022-10-05T00:13:59.669Z,100.00
2022-10-05T00:16:48.770Z,100.00
2022-10-05T00:19:40.071Z,100.00
2022-10-05T00:22:32.916Z,100.00
2022-10-05T00:25:23.605Z,100.00
2022-10-05T00:28:19.313Z,100.00
2022-10-05T00:31:16.222Z,100.00
2022-10-05T00:34:04.782Z,100.00
2022-10-05T00:36:53.322Z,100.00
2022-10-05T00:39:42.557Z,100.00
2022-10-05T00:42:45.042Z,100.00
2022-10-05T00:45:39.166Z,100.00
2022-10-05T00:48:34.790Z,100.00
2022-10-05T00:51:26.893Z,100.00
2022-10-05T00:54:27.687Z,100.00
2022-10-05T00:57:29.638Z,100.00
2022-10-05T01:00:26.088Z,100.00
2022-10-05T01:03:22.210Z,100.00
2022-10-05T01:06:22.690Z,100.00
2022-10-05T01:09:16.125Z,100.00
2022-10-05T01:12:10.841Z,100.00
2022-10-05T01:15:06.740Z,100.00
2022-10-05T01:18:04.321Z,100.00
2022-10-05T01:21:01.041Z,100.00
2022-10-05T01:24:21.431Z,100.00
2022-10-05T01:27:38.741Z,100.00
2022-10-05T01:30:27.560Z,100.00
2022-10-05T01:33:22.607Z,100.00
2022-10-05T01:36:16.715Z,100.00
2022-10-05T01:39:15.191Z,100.00
2022-10-05T01:42:13.453Z,100.00
2022-10-05T01:45:10.562Z,100.00
2022-10-05T01:48:15.054Z,100.00
2022-10-05T01:51:13.134Z,100.00
2022-10-05T01:54:11.879Z,100.00
2022-10-05T01:57:08.847Z,100.00
2022-10-05T02:00:07.926Z,100.00
2022-10-05T02:03:01.812Z,100.00
2022-10-05T02:05:54.493Z,100.00
2022-10-05T02:08:48.441Z,100.00
2022-10-05T02:11:40.620Z,100.00
2022-10-05T02:14:34.554Z,100.00
2022-10-05T02:17:28.869Z,100.00
2022-10-05T02:20:24.751Z,100.00
2022-10-05T02:23:19.369Z,100.00
2022-10-05T02:26:12.495Z,100.00
2022-10-05T02:29:05.606Z,100.00
2022-10-05T02:31:58.700Z,100.00
2022-10-05T02:34:48.812Z,100.00
2022-10-05T02:37:45.802Z,100.00
2022-10-05T02:40:42.986Z,100.00
2022-10-05T02:43:41.902Z,100.00
2022-10-05T02:46:37.990Z,100.00
2022-10-05T02:49:37.441Z,100.00
2022-10-05T02:52:34.171Z,100.00
2022-10-05T02:55:31.225Z,100.00
2022-10-05T02:58:24.211Z,100.00
2022-10-05T03:01:22.956Z,100.00
2022-10-05T03:04:22.586Z,100.00
2022-10-05T03:07:17.196Z,100.00
2022-10-05T03:10:13.395Z,100.00
2022-10-05T03:13:07.597Z,100.00
2022-10-05T03:16:11.681Z,100.00
2022-10-05T03:19:10.366Z,100.00
2022-10-05T03:22:05.942Z,100.00
2022-10-05T03:25:15.468Z,100.00
2022-10-05T03:28:15.645Z,100.00
2022-10-05T03:31:06.864Z,100.00
2022-10-05T03:34:00.912Z,100.00
2022-10-05T03:36:57.350Z,100.00
2022-10-05T03:39:54.333Z,100.00
2022-10-05T03:42:54.579Z,100.00
2022-10-05T03:45:56.117Z,100.00
2022-10-05T03:48:52.329Z,100.00
2022-10-05T03:51:44.979Z,100.00
2022-10-05T03:54:39.698Z,100.00
2022-10-05T03:57:32.911Z,100.00
2022-10-05T04:00:24.027Z,100.00
2022-10-05T04:03:20.297Z,100.00
2022-10-05T04:06:13.711Z,100.00
2022-10-05T04:09:07.022Z,100.00
2022-10-05T04:12:12.446Z,100.00
2022-10-05T04:15:04.513Z,100.00
2022-10-05T04:17:58.603Z,100.00
2022-10-05T04:20:52.643Z,100.00
2022-10-05T04:23:49.353Z,100.00
2022-10-05T04:26:46.934Z,100.00
2022-10-05T04:29:42.102Z,100.00
2022-10-05T04:32:37.471Z,100.00
2022-10-05T04:35:46.297Z,100.00
2022-10-05T04:38:52.224Z,100.00
2022-10-05T04:42:01.709Z,100.00
2022-10-05T04:45:04.502Z,100.00
2022-10-05T04:48:31.281Z,100.00
2022-10-05T04:51:33.889Z,100.00
2022-10-05T04:54:33.701Z,100.00
2022-10-05T04:57:29.331Z,100.00
2022-10-05T05:00:25.992Z,100.00
2022-10-05T05:03:33.415Z,100.00
2022-10-05T05:06:31.836Z,100.00
2022-10-05T05:09:54.232Z,100.00
2022-10-05T05:12:54.193Z,100.00
2022-10-05T05:15:49.939Z,100.00
2022-10-05T05:19:06.004Z,100.00
2022-10-05T05:22:03.002Z,100.00
2022-10-05T05:25:16.857Z,100.00
2022-10-05T05:28:18.540Z,100.00
2022-10-05T05:31:14.372Z,100.00
2022-10-05T05:34:12.464Z,100.00
2022-10-05T05:37:07.823Z,100.00
2022-10-05T05:40:07.688Z,100.00
2022-10-05T05:43:00.210Z,100.00
2022-10-05T05:45:58.111Z,100.00
2022-10-05T05:48:48.661Z,100.00
2022-10-05T05:51:44.431Z,100.00
2022-10-05T05:54:39.108Z,100.00
2022-10-05T05:57:32.334Z,100.00
2022-10-05T06:00:24.464Z,100.00
2022-10-05T06:03:18.088Z,100.00
2022-10-05T06:06:10.595Z,100.00
2022-10-05T06:09:03.311Z,100.00
2022-10-05T06:11:55.392Z,100.00
2022-10-05T06:14:49.953Z,100.00
2022-10-05T06:17:44.693Z,100.00
2022-10-05T06:20:40.910Z,100.00
2022-10-05T06:23:39.757Z,100.00
2022-10-05T06:26:41.526Z,100.00
2022-10-05T06:29:39.970Z,100.00
2022-10-05T06:32:34.692Z,100.00
2022-10-05T06:35:36.467Z,100.00
2022-10-05T06:38:49.646Z,100.00
2022-10-05T06:41:50.742Z,100.00
2022-10-05T06:44:49.964Z,100.00
2022-10-05T06:47:51.004Z,100.00
2022-10-05T06:50:43.921Z,100.00
2022-10-05T06:53:37.063Z,100.00
2022-10-05T06:56:29.551Z,100.00
2022-10-05T06:59:25.286Z,100.00
2022-10-05T07:02:22.963Z,100.00
2022-10-05T07:05:40.804Z,100.00
2022-10-05T07:08:40.904Z,100.00
2022-10-05T07:11:51.339Z,100.00
2022-10-05T07:14:57.302Z,100.00
2022-10-05T07:17:59.540Z,100.00
2022-10-05T07:20:55.211Z,100.00
2022-10-05T07:23:54.543Z,100.00
2022-10-05T07:26:47.329Z,100.00
2022-10-05T07:29:45.532Z,100.00
2022-10-05T07:32:37.880Z,100.00
2022-10-05T07:35:52.523Z,100.00
2022-10-05T07:38:47.211Z,100.00
2022-10-05T07:41:43.755Z,100.00
2022-10-05T07:44:38.677Z,100.00
2022-10-05T07:47:37.011Z,100.00
2022-10-05T07:50:31.283Z,100.00
2022-10-05T07:53:25.031Z,100.00
2022-10-05T07:56:23.112Z,100.00
2022-10-05T07:59:22.442Z,100.00
2022-10-05T08:02:23.838Z,100.00
2022-10-05T08:05:20.167Z,100.00
2022-10-05T08:08:24.653Z,100.00
2022-10-05T08:11:18.340Z,100.00
2022-10-05T08:14:16.804Z,100.00
2022-10-05T08:17:12.770Z,100.00
2022-10-05T08:20:15.637Z,100.00
2022-10-05T08:23:13.227Z,100.00
2022-10-05T08:26:18.015Z,100.00
2022-10-05T08:29:17.329Z,100.00
2022-10-05T08:32:13.531Z,100.00
2022-10-05T08:35:15.270Z,84.90
2022-10-05T08:38:09.354Z,84.58
2022-10-05T08:41:17.577Z,84.06
2022-10-05T08:44:48.230Z,84.41
2022-10-05T08:48:07.050Z,86.51
2022-10-05T08:51:29.557Z,85.67
2022-10-05T08:54:48.493Z,83.54
2022-10-05T08:58:02.491Z,83.76
2022-10-05T09:01:00.367Z,82.56
2022-10-05T09:04:08.853Z,83.99
2022-10-05T09:07:25.444Z,82.95
2022-10-05T09:11:02.662Z,83.25
2022-10-05T09:14:14.621Z,81.83
2022-10-05T09:17:33.799Z,79.70
2022-10-05T09:20:32.310Z,79.63
2022-10-05T09:23:38.406Z,77.79
2022-10-05T09:26:59.121Z,78.22
2022-10-05T09:30:18.648Z,77.12
2022-10-05T09:33:44.817Z,76.29
2022-10-05T09:37:11.825Z,75.77
2022-10-05T09:40:45.117Z,75.69
2022-10-05T09:44:11.733Z,76.34
2022-10-05T09:47:36.802Z,75.52
2022-10-05T09:51:03.991Z,76.51
2022-10-05T09:54:23.236Z,75.79
2022-10-05T09:57:46.391Z,74.25
2022-10-05T10:00:55.665Z,75.90
2022-10-05T10:04:18.620Z,75.48
2022-10-05T10:07:39.961Z,74.68
2022-10-05T10:10:55.121Z,76.60
2022-10-05T10:14:20.918Z,76.84
2022-10-05T10:17:38.198Z,77.93
2022-10-05T10:20:36.546Z,76.94
2022-10-05T10:23:55.015Z,73.85
2022-10-05T10:27:03.002Z,72.67
2022-10-05T10:30:21.885Z,74.31
2022-10-05T10:33:47.691Z,73.79
2022-10-05T10:36:58.477Z,72.11
2022-10-05T10:40:07.748Z,74.96
2022-10-05T10:43:28.323Z,73.71
2022-10-05T10:46:32.015Z,70.75
2022-10-05T10:49:36.866Z,69.92
2022-10-05T10:52:39.015Z,70.27
2022-10-05T10:55:36.534Z,72.84
2022-10-05T10:58:52.019Z,70.63
2022-10-05T11:01:52.584Z,70.81
2022-10-05T11:05:01.765Z,67.02
2022-10-05T11:08:20.313Z,69.02
2022-10-05T11:11:22.678Z,65.94
2022-10-05T11:14:37.004Z,66.47
2022-10-05T11:18:08.345Z,64.93
2022-10-05T11:21:32.009Z,65.46
2022-10-05T11:24:46.927Z,65.58
2022-10-05T11:27:51.378Z,64.84
2022-10-05T11:31:15.709Z,62.16
2022-10-05T11:34:24.157Z,63.34
2022-10-05T11:37:41.213Z,61.05
2022-10-05T11:41:08.941Z,62.10
2022-10-05T11:44:38.657Z,61.35
2022-10-05T11:47:33.102Z,58.26
2022-10-05T11:50:26.972Z,57.74
2022-10-05T11:53:22.192Z,58.63
2022-10-05T11:56:23.357Z,59.02
2022-10-05T11:59:18.983Z,58.63
2022-10-05T12:02:43.042Z,59.22
2022-10-05T12:05:41.941Z,58.23
2022-10-05T12:08:41.340Z,58.84
2022-10-05T12:12:03.911Z,59.22
2022-10-05T12:15:00.230Z,58.90
2022-10-05T12:17:56.007Z,57.10
2022-10-05T12:20:52.401Z,57.27
2022-10-05T12:23:46.593Z,57.38
2022-10-05T12:26:40.918Z,59.68
2022-10-05T12:29:35.422Z,57.82
2022-10-05T12:32:30.274Z,57.07
2022-10-05T12:35:43.842Z,56.81
2022-10-05T12:38:40.730Z,57.98
2022-10-05T12:41:34.217Z,57.98
2022-10-05T12:44:53.046Z,57.41
2022-10-05T12:47:54.033Z,56.75
2022-10-05T12:50:44.810Z,56.58
2022-10-05T12:53:48.765Z,56.84
2022-10-05T12:56:45.472Z,56.67
2022-10-05T12:59:42.093Z,57.11
2022-10-05T13:02:39.297Z,52.83
2022-10-05T13:05:37.431Z,53.17
2022-10-05T13:08:38.414Z,52.26
2022-10-05T13:11:37.385Z,53.42
2022-10-05T13:14:53.811Z,52.88
2022-10-05T13:17:51.444Z,53.85
2022-10-05T13:20:47.055Z,52.97
2022-10-05T13:23:51.722Z,52.48
2022-10-05T13:26:49.435Z,53.46
2022-10-05T13:29:43.230Z,53.03
2022-10-05T13:32:36.942Z,54.95
2022-10-05T13:35:45.312Z,55.54
2022-10-05T13:38:46.163Z,53.28
2022-10-05T13:41:44.035Z,55.13
2022-10-05T13:44:43.945Z,54.17
2022-10-05T13:47:39.171Z,54.86
2022-10-05T13:50:33.474Z,55.90
2022-10-05T13:53:30.305Z,57.61
2022-10-05T13:56:23.456Z,60.73
2022-10-05T13:59:24.311Z,61.16
2022-10-05T14:02:21.465Z,58.12
2022-10-05T14:05:18.980Z,61.89
2022-10-05T14:08:18.344Z,59.25
2022-10-05T14:11:22.494Z,58.56
2022-10-05T14:14:16.326Z,54.74
2022-10-05T14:17:14.531Z,53.55
2022-10-05T14:20:19.742Z,50.62
2022-10-05T14:23:18.524Z,48.91
2022-10-05T14:26:20.305Z,51.32
2022-10-05T14:29:19.566Z,53.04
2022-10-05T14:32:14.937Z,54.50
2022-10-05T14:35:17.111Z,53.68
2022-10-05T14:38:20.082Z,57.74
2022-10-05T14:41:19.661Z,57.44
2022-10-05T14:44:30.276Z,59.29
2022-10-05T14:47:23.904Z,59.09
2022-10-05T14:50:21.444Z,61.55
2022-10-05T14:53:17.952Z,62.65
2022-10-05T14:56:37.185Z,63.15
2022-10-05T14:59:54.284Z,62.97
2022-10-05T15:03:23.603Z,62.11
2022-10-05T15:06:22.543Z,63.79
2022-10-05T15:09:30.503Z,68.08
2022-10-05T15:12:26.999Z,71.22
2022-10-05T15:15:25.775Z,74.55
2022-10-05T15:18:29.669Z,73.72
2022-10-05T15:21:47.523Z,75.92
2022-10-05T15:24:43.788Z,77.04
2022-10-05T15:27:44.755Z,78.62
2022-10-05T15:30:37.747Z,79.77
2022-10-05T15:33:35.608Z,81.88
2022-10-05T15:36:32.523Z,82.92
2022-10-05T15:39:34.862Z,83.50
2022-10-05T15:42:31.691Z,84.84
2022-10-05T15:45:25.616Z,85.39
2022-10-05T15:48:21.373Z,86.70
2022-10-05T15:51:19.017Z,88.22
2022-10-05T15:54:36.715Z,87.68
2022-10-05T15:57:36.918Z,89.67
2022-10-05T16:00:27.321Z,89.27
2022-10-05T16:03:24.513Z,88.69
2022-10-05T16:06:42.503Z,90.78
2022-10-05T16:09:44.340Z,91.26
2022-10-05T16:12:45.663Z,90.63
2022-10-05T16:15:42.831Z,91.86
2022-10-05T16:18:45.831Z,92.91
2022-10-05T16:21:44.324Z,95.48
2022-10-05T16:24:58.987Z,98.56
2022-10-05T16:28:05.272Z,100.00
2022-10-05T16:31:01.215Z,100.00
2022-10-05T16:34:02.389Z,100.00
2022-10-05T16:36:59.916Z,100.00
2022-10-05T16:39:54.312Z,100.00
2022-10-05T16:42:56.860Z,100.00
2022-10-05T16:45:55.781Z,100.00
2022-10-05T16:48:56.435Z,100.00
2022-10-05T16:51:53.997Z,100.00
2022-10-05T16:54:48.229Z,100.00
2022-10-05T16:57:41.964Z,100.00
2022-10-05T17:00:42.102Z,100.00
2022-10-05T17:03:44.040Z,100.00
2022-10-05T17:06:48.190Z,100.00
2022-10-05T17:10:12.085Z,100.00
2022-10-05T17:13:07.318Z,100.00
2022-10-05T17:16:07.212Z,100.00
2022-10-05T17:19:19.441Z,100.00
2022-10-05T17:22:14.184Z,100.00
2022-10-05T17:25:11.143Z,100.00
2022-10-05T17:28:23.141Z,100.00
2022-10-05T17:31:18.685Z,100.00
2022-10-05T17:34:29.979Z,100.00
2022-10-05T17:37:35.744Z,100.00
2022-10-05T17:40:34.591Z,100.00
2022-10-05T17:43:25.803Z,100.00
2022-10-05T17:46:32.802Z,100.00
2022-10-05T17:49:47.663Z,100.00
2022-10-05T17:52:55.993Z,100.00
2022-10-05T17:55:47.604Z,100.00
2022-10-05T17:59:03.941Z,100.00
2022-10-05T18:02:18.489Z,100.00
2022-10-05T18:05:22.064Z,100.00
2022-10-05T18:08:38.464Z,100.00
2022-10-05T18:11:39.919Z,100.00
2022-10-05T18:14:50.743Z,100.00
2022-10-05T18:17:47.581Z,100.00
2022-10-05T18:20:37.572Z,100.00
2022-10-05T18:23:35.724Z,100.00
2022-10-05T18:26:38.661Z,100.00
2022-10-05T18:30:05.386Z,100.00
2022-10-05T18:33:32.511Z,100.00
2022-10-05T18:37:00.337Z,100.00
2022-10-05T18:40:04.905Z,100.00
2022-10-05T18:43:01.082Z,100.00
2022-10-05T18:46:05.283Z,100.00
2022-10-05T18:49:07.161Z,100.00
2022-10-05T18:52:08.115Z,100.00
2022-10-05T18:55:06.987Z,100.00
2022-10-05T18:58:26.449Z,100.00
2022-10-05T19:02:01.317Z,100.00
2022-10-05T19:05:42.464Z,100.00
2022-10-05T19:08:38.559Z,100.00
2022-10-05T19:11:40.676Z,100.00
2022-10-05T19:14:46.797Z,100.00
2022-10-05T19:18:03.474Z,100.00
2022-10-05T19:21:07.451Z,100.00
2022-10-05T19:24:43.467Z,100.00
2022-10-05T19:27:53.134Z,100.00
2022-10-05T19:31:15.172Z,100.00
2022-10-05T19:34:19.542Z,100.00
2022-10-05T19:37:17.066Z,100.00
2022-10-05T19:40:21.872Z,100.00
2022-10-05T19:43:40.031Z,100.00
2022-10-05T19:46:47.645Z,100.00
2022-10-05T19:49:38.857Z,100.00
2022-10-05T19:52:31.290Z,100.00
2022-10-05T19:55:32.903Z,100.00
2022-10-05T19:58:24.719Z,100.00
2022-10-05T20:01:24.509Z,100.00
2022-10-05T20:04:13.822Z,100.00
2022-10-05T20:07:03.545Z,100.00
2022-10-05T20:09:58.885Z,100.00
2022-10-05T20:13:01.111Z,100.00
2022-10-05T20:16:29.098Z,100.00
2022-10-05T20:19:55.414Z,100.00
2022-10-05T20:22:46.602Z,100.00
2022-10-05T20:25:40.560Z,100.00
2022-10-05T20:28:33.710Z,100.00
2022-10-05T20:31:22.346Z,100.00
2022-10-05T20:34:10.944Z,100.00
2022-10-05T20:36:59.534Z,100.00
2022-10-05T20:39:48.820Z,100.00
2022-10-05T20:42:38.011Z,100.00
2022-10-05T20:45:28.520Z,100.00
2022-10-05T20:48:17.644Z,100.00
2022-10-05T20:51:06.455Z,100.00
2022-10-05T20:53:55.522Z,100.00
2022-10-05T20:56:43.997Z,100.00
2022-10-05T20:59:33.451Z,100.00
2022-10-05T21:02:23.351Z,100.00
2022-10-05T21:05:12.057Z,100.00
2022-10-05T21:08:00.676Z,100.00
2022-10-05T21:10:49.523Z,100.00
2022-10-05T21:13:38.760Z,100.00
2022-10-05T21:16:29.881Z,100.00
2022-10-05T21:19:20.016Z,100.00
2022-10-05T21:22:09.813Z,100.00
2022-10-05T21:24:58.609Z,100.00
2022-10-05T21:27:48.781Z,100.00
2022-10-05T21:30:37.390Z,100.00
2022-10-05T21:33:26.304Z,100.00
2022-10-05T21:36:17.164Z,100.00
2022-10-05T21:39:05.857Z,100.00
2022-10-05T21:41:54.553Z,100.00
2022-10-05T21:44:43.024Z,100.00
2022-10-05T21:47:31.885Z,100.00
2022-10-05T21:50:20.584Z,100.00
2022-10-05T21:53:13.374Z,100.00
2022-10-05T21:56:05.643Z,100.00
2022-10-05T21:58:54.352Z,100.00
2022-10-05T22:01:42.984Z,100.00
2022-10-05T22:04:31.577Z,100.00
2022-10-05T22:07:21.360Z,100.00
2022-10-05T22:10:11.753Z,100.00
2022-10-05T22:13:04.383Z,100.00
2022-10-05T22:15:54.067Z,100.00
2022-10-05T22:18:43.500Z,100.00
2022-10-05T22:21:34.309Z,100.00
2022-10-05T22:24:23.173Z,100.00
2022-10-05T22:27:13.237Z,100.00
2022-10-05T22:30:03.213Z,100.00
2022-10-05T22:32:51.829Z,100.00
2022-10-05T22:35:41.144Z,100.00
2022-10-05T22:38:30.840Z,100.00
2022-10-05T22:41:19.643Z,100.00
2022-10-05T22:44:09.573Z,100.00
2022-10-05T22:46:58.163Z,100.00
2022-10-05T22:49:46.685Z,100.00
2022-10-05T22:52:35.191Z,100.00
2022-10-05T22:55:24.693Z,100.00
2022-10-05T22:58:13.217Z,100.00
2022-10-05T23:01:04.907Z,100.00
2022-10-05T23:03:53.986Z,100.00
2022-10-05T23:06:42.940Z,100.00
2022-10-05T23:09:31.432Z,100.00
2022-10-05T23:12:19.886Z,100.00
2022-10-05T23:15:09.882Z,100.00
2022-10-05T23:17:59.840Z,100.00
2022-10-05T23:20:54.358Z,100.00
2022-10-05T23:23:47.421Z,100.00
2022-10-05T23:26:35.995Z,100.00
2022-10-05T23:29:24.495Z,100.00
2022-10-05T23:32:13.064Z,100.00
2022-10-05T23:35:02.990Z,100.00
2022-10-05T23:37:51.544Z,100.00
2022-10-05T23:40:40.017Z,100.00
2022-10-05T23:43:28.753Z,100.00
2022-10-05T23:46:17.789Z,100.00
2022-10-05T23:49:07.121Z,100.00
2022-10-05T23:51:57.061Z,100.00
2022-10-05T23:54:45.561Z,100.00
2022-10-05T23:57:34.074Z,100.00
